West Mifflin, PA (15122)

9:20 AM EST on December 08, 2016 (GMT -0500)
West Mifflin | | Change Station

Elev 1070 ft 40.37 °N, 79.89 °W | Updated 25 seconds ago

Overcast
Overcast
32.2 °F
Feels Like 28 °F
N
4.3
Wind Variable Wind from WNW
Gusts 4.9 mph

Today
High -- | Low -- °F
--% Chance of Precip.
Yesterday
High -- | Low -- °F
Precip. -- in
Pressure 30.06 in
Visibility 10.0 miles
Clouds Overcast 8500 ft
Windchill 28 °F
Dew Point 18 °F
Humidity 55%
Rainfall 0.00 in
Snow Depth Not available.
7:30 AM 4:53 PM
Waxing Gibbous, 63% visible
METAR KAGC 081253Z 24010KT 10SM OVC085 M01/M07 A3001 RMK AO2 SLP179 T10061067
Pressure 30.06 in
Visibility 10.0 miles
Clouds Overcast 8500 ft
Windchill 28 °F
Dew Point 18 °F
Humidity 55%
Rainfall 0.00 in
Snow Depth Not available.
7:30 AM 4:53 PM
Waxing Gibbous, 63% visible
METAR KAGC 081253Z 24010KT 10SM OVC085 M01/M07 A3001 RMK AO2 SLP179 T10061067

10-Day Weather Forecast

Almanac

Astronomy

Dec. 08, 2016 Rise Set
Actual Time
Civil Twilight
Nautical Twilight
Astronomical Twilight
Moon
Length of Visible Light
Length of Day
Tomorrow will be .
, % of the Moon is Illuminated

Today's Extremes

State Highs State Lows

Community

WunderPhotos

Upload Photos

1,956,268 photos uploaded!

WunderBlog® & News

Nearby

Air Quality

  Air Quality AQ Index Pollutant
Not available.

Snow Depth

Station Depth Elevation

Earthquake Activity

City Distance Mag. Time & Date
Minimum magnitude displayed is 2.5.

Coastal Water Temperatures

Place Temperature

Stations

Nearby Weather Stations

Station Location Temp. Windchill Dew Point Humidity Wind Precip. Elev Updated Type
                   

Watches & Warnings

There are currently no watches in effect.